sensor_id;sensor_type;location;lat;lon;timestamp;temperature;humidity
21830;DHT22;11077;50.264;6.798;2024-03-22T00:01:47;8.60;99.90
21830;DHT22;11077;50.264;6.798;2024-03-22T00:04:15;8.60;99.90
21830;DHT22;11077;50.264;6.798;2024-03-22T00:06:43;8.60;99.90
21830;DHT22;11077;50.264;6.798;2024-03-22T00:09:10;8.60;99.90
21830;DHT22;11077;50.264;6.798;2024-03-22T00:11:38;8.50;99.90
21830;DHT22;11077;50.264;6.798;2024-03-22T00:14:05;8.50;99.90
21830;DHT22;11077;50.264;6.798;2024-03-22T00:16:32;8.50;99.90
21830;DHT22;11077;50.264;6.798;2024-03-22T00:18:58;8.50;99.90
21830;DHT22;11077;50.264;6.798;2024-03-22T00:21:27;8.50;99.90
21830;DHT22;11077;50.264;6.798;2024-03-22T00:23:54;8.50;99.90
21830;DHT22;11077;50.264;6.798;2024-03-22T00:26:21;8.50;99.90
21830;DHT22;11077;50.264;6.798;2024-03-22T00:28:48;8.50;99.90
21830;DHT22;11077;50.264;6.798;2024-03-22T00:31:16;8.50;99.90
21830;DHT22;11077;50.264;6.798;2024-03-22T00:33:43;8.60;99.90
21830;DHT22;11077;50.264;6.798;2024-03-22T00:36:10;8.60;99.90
21830;DHT22;11077;50.264;6.798;2024-03-22T00:38:38;8.60;99.90
21830;DHT22;11077;50.264;6.798;2024-03-22T00:41:05;8.60;99.90
21830;DHT22;11077;50.264;6.798;2024-03-22T00:43:32;8.60;99.90
21830;DHT22;11077;50.264;6.798;2024-03-22T00:46:00;8.50;99.90
21830;DHT22;11077;50.264;6.798;2024-03-22T00:48:28;8.50;99.90
21830;DHT22;11077;50.264;6.798;2024-03-22T00:50:55;8.50;99.90
21830;DHT22;11077;50.264;6.798;2024-03-22T00:53:21;8.50;99.90
21830;DHT22;11077;50.264;6.798;2024-03-22T00:55:50;8.50;99.90
21830;DHT22;11077;50.264;6.798;2024-03-22T00:58:18;8.50;99.90
21830;DHT22;11077;50.264;6.798;2024-03-22T01:00:45;8.50;99.90
21830;DHT22;11077;50.264;6.798;2024-03-22T01:03:12;8.50;99.90
21830;DHT22;11077;50.264;6.798;2024-03-22T01:05:39;8.40;99.90
21830;DHT22;11077;50.264;6.798;2024-03-22T01:08:06;8.50;99.90
21830;DHT22;11077;50.264;6.798;2024-03-22T01:10:34;8.50;99.90
21830;DHT22;11077;50.264;6.798;2024-03-22T01:13:02;8.50;99.90
21830;DHT22;11077;50.264;6.798;2024-03-22T01:15:29;8.50;99.90
21830;DHT22;11077;50.264;6.798;2024-03-22T01:17:55;8.50;99.90
21830;DHT22;11077;50.264;6.798;2024-03-22T01:20:24;8.50;99.90
21830;DHT22;11077;50.264;6.798;2024-03-22T01:22:50;8.50;99.90
21830;DHT22;11077;50.264;6.798;2024-03-22T01:25:17;8.40;99.90
21830;DHT22;11077;50.264;6.798;2024-03-22T01:27:43;8.50;99.90
21830;DHT22;11077;50.264;6.798;2024-03-22T01:30:12;8.50;99.90
21830;DHT22;11077;50.264;6.798;2024-03-22T01:32:38;8.50;99.90
21830;DHT22;11077;50.264;6.798;2024-03-22T01:35:06;8.50;99.90
21830;DHT22;11077;50.264;6.798;2024-03-22T01:37:32;8.50;99.90
21830;DHT22;11077;50.264;6.798;2024-03-22T01:40:00;8.50;99.90
21830;DHT22;11077;50.264;6.798;2024-03-22T01:42:26;8.50;99.90
21830;DHT22;11077;50.264;6.798;2024-03-22T01:44:53;8.50;99.90
21830;DHT22;11077;50.264;6.798;2024-03-22T01:47:21;8.40;99.90
21830;DHT22;11077;50.264;6.798;2024-03-22T01:49:49;8.40;99.90
21830;DHT22;11077;50.264;6.798;2024-03-22T01:52:16;8.40;99.90
21830;DHT22;11077;50.264;6.798;2024-03-22T01:54:44;8.30;99.90
21830;DHT22;11077;50.264;6.798;2024-03-22T01:57:10;8.30;99.90
21830;DHT22;11077;50.264;6.798;2024-03-22T01:59:39;8.30;99.90
21830;DHT22;11077;50.264;6.798;2024-03-22T02:02:05;8.30;99.90
21830;DHT22;11077;50.264;6.798;2024-03-22T02:04:34;8.30;99.90
21830;DHT22;11077;50.264;6.798;2024-03-22T02:07:00;8.30;99.90
21830;DHT22;11077;50.264;6.798;2024-03-22T02:09:28;8.30;99.90
21830;DHT22;11077;50.264;6.798;2024-03-22T02:11:54;8.40;99.90
21830;DHT22;11077;50.264;6.798;2024-03-22T02:14:22;8.30;99.90
21830;DHT22;11077;50.264;6.798;2024-03-22T02:16:49;8.40;99.90
21830;DHT22;11077;50.264;6.798;2024-03-22T02:19:16;8.40;99.90
21830;DHT22;11077;50.264;6.798;2024-03-22T02:21:44;8.50;99.90
21830;DHT22;11077;50.264;6.798;2024-03-22T02:24:13;8.50;99.90
21830;DHT22;11077;50.264;6.798;2024-03-22T02:26:39;8.50;99.90
21830;DHT22;11077;50.264;6.798;2024-03-22T02:29:06;8.50;99.90
21830;DHT22;11077;50.264;6.798;2024-03-22T02:31:33;8.50;99.90
21830;DHT22;11077;50.264;6.798;2024-03-22T02:34:00;8.50;99.90
21830;DHT22;11077;50.264;6.798;2024-03-22T02:36:26;8.50;99.90
21830;DHT22;11077;50.264;6.798;2024-03-22T02:38:54;8.50;99.90
21830;DHT22;11077;50.264;6.798;2024-03-22T02:41:21;8.40;99.90
21830;DHT22;11077;50.264;6.798;2024-03-22T02:43:49;8.40;99.90
21830;DHT22;11077;50.264;6.798;2024-03-22T02:46:15;8.40;99.90
21830;DHT22;11077;50.264;6.798;2024-03-22T02:48:42;8.40;99.90
21830;DHT22;11077;50.264;6.798;2024-03-22T02:51:08;8.30;99.90
21830;DHT22;11077;50.264;6.798;2024-03-22T02:53:35;8.30;99.90
21830;DHT22;11077;50.264;6.798;2024-03-22T02:56:03;8.20;99.90
21830;DHT22;11077;50.264;6.798;2024-03-22T02:58:31;8.20;99.90
21830;DHT22;11077;50.264;6.798;2024-03-22T03:00:58;8.20;99.90
21830;DHT22;11077;50.264;6.798;2024-03-22T03:03:24;8.20;99.90
21830;DHT22;11077;50.264;6.798;2024-03-22T03:05:51;8.20;99.90
21830;DHT22;11077;50.264;6.798;2024-03-22T03:08:18;8.20;99.90
21830;DHT22;11077;50.264;6.798;2024-03-22T03:10:45;8.20;99.90
21830;DHT22;11077;50.264;6.798;2024-03-22T03:13:11;8.20;99.90
21830;DHT22;11077;50.264;6.798;2024-03-22T03:15:40;8.20;99.90
21830;DHT22;11077;50.264;6.798;2024-03-22T03:18:06;8.20;99.90
21830;DHT22;11077;50.264;6.798;2024-03-22T03:20:33;8.20;99.90
21830;DHT22;11077;50.264;6.798;2024-03-22T03:23:00;8.20;99.90
21830;DHT22;11077;50.264;6.798;2024-03-22T03:25:27;8.20;99.90
21830;DHT22;11077;50.264;6.798;2024-03-22T03:27:53;8.20;99.90
21830;DHT22;11077;50.264;6.798;2024-03-22T03:30:21;8.10;99.90
21830;DHT22;11077;50.264;6.798;2024-03-22T03:32:48;8.20;99.90
21830;DHT22;11077;50.264;6.798;2024-03-22T03:35:16;8.10;99.90
21830;DHT22;11077;50.264;6.798;2024-03-22T03:37:42;8.10;99.90
21830;DHT22;11077;50.264;6.798;2024-03-22T03:40:09;8.10;99.90
21830;DHT22;11077;50.264;6.798;2024-03-22T03:42:36;8.20;99.90
21830;DHT22;11077;50.264;6.798;2024-03-22T03:45:03;8.20;99.90
21830;DHT22;11077;50.264;6.798;2024-03-22T03:47:29;8.10;99.90
21830;DHT22;11077;50.264;6.798;2024-03-22T03:49:58;8.10;99.90
21830;DHT22;11077;50.264;6.798;2024-03-22T03:52:24;8.10;99.90
21830;DHT22;11077;50.264;6.798;2024-03-22T03:54:52;8.10;99.90
21830;DHT22;11077;50.264;6.798;2024-03-22T03:57:18;8.10;99.90
21830;DHT22;11077;50.264;6.798;2024-03-22T03:59:45;8.20;99.90
21830;DHT22;11077;50.264;6.798;2024-03-22T04:02:11;8.20;99.90
21830;DHT22;11077;50.264;6.798;2024-03-22T04:04:39;8.20;99.90
21830;DHT22;11077;50.264;6.798;2024-03-22T04:07:07;8.20;99.90
21830;DHT22;11077;50.264;6.798;2024-03-22T04:09:34;8.20;99.90
21830;DHT22;11077;50.264;6.798;2024-03-22T04:12:01;8.20;99.90
21830;DHT22;11077;50.264;6.798;2024-03-22T04:14:28;8.20;99.90
21830;DHT22;11077;50.264;6.798;2024-03-22T04:16:54;8.30;99.90
21830;DHT22;11077;50.264;6.798;2024-03-22T04:19:22;8.30;99.90
21830;DHT22;11077;50.264;6.798;2024-03-22T04:21:49;8.40;99.90
21830;DHT22;11077;50.264;6.798;2024-03-22T04:24:18;8.50;99.90
21830;DHT22;11077;50.264;6.798;2024-03-22T04:26:44;8.60;99.90
21830;DHT22;11077;50.264;6.798;2024-03-22T04:29:11;8.70;99.90
21830;DHT22;11077;50.264;6.798;2024-03-22T04:31:38;8.70;99.90
21830;DHT22;11077;50.264;6.798;2024-03-22T04:34:05;8.80;99.90
21830;DHT22;11077;50.264;6.798;2024-03-22T04:36:33;8.80;99.90
21830;DHT22;11077;50.264;6.798;2024-03-22T04:39:00;8.80;99.90
21830;DHT22;11077;50.264;6.798;2024-03-22T04:41:29;8.90;99.90
21830;DHT22;11077;50.264;6.798;2024-03-22T04:43:57;8.90;99.90
21830;DHT22;11077;50.264;6.798;2024-03-22T04:46:24;8.90;99.90
21830;DHT22;11077;50.264;6.798;2024-03-22T04:48:51;8.90;99.90
21830;DHT22;11077;50.264;6.798;2024-03-22T04:51:17;8.90;99.90
21830;DHT22;11077;50.264;6.798;2024-03-22T04:53:45;8.90;99.90
21830;DHT22;11077;50.264;6.798;2024-03-22T04:56:11;9.00;99.90
21830;DHT22;11077;50.264;6.798;2024-03-22T04:58:40;8.90;99.90
21830;DHT22;11077;50.264;6.798;2024-03-22T05:01:07;8.90;99.90
21830;DHT22;11077;50.264;6.798;2024-03-22T05:03:34;8.90;99.90
21830;DHT22;11077;50.264;6.798;2024-03-22T05:06:00;8.90;99.90
21830;DHT22;11077;50.264;6.798;2024-03-22T05:08:29;9.00;99.90
21830;DHT22;11077;50.264;6.798;2024-03-22T05:10:55;9.00;99.90
21830;DHT22;11077;50.264;6.798;2024-03-22T05:13:22;9.00;99.90
21830;DHT22;11077;50.264;6.798;2024-03-22T05:15:50;9.00;99.90
21830;DHT22;11077;50.264;6.798;2024-03-22T05:18:17;9.00;99.90
21830;DHT22;11077;50.264;6.798;2024-03-22T05:20:44;9.00;99.90
21830;DHT22;11077;50.264;6.798;2024-03-22T05:23:12;9.00;99.90
21830;DHT22;11077;50.264;6.798;2024-03-22T05:25:38;9.00;99.90
21830;DHT22;11077;50.264;6.798;2024-03-22T05:28:05;9.00;99.90
21830;DHT22;11077;50.264;6.798;2024-03-22T05:30:31;8.90;99.90
21830;DHT22;11077;50.264;6.798;2024-03-22T05:33:00;8.90;99.90
21830;DHT22;11077;50.264;6.798;2024-03-22T05:35:27;8.90;99.90
21830;DHT22;11077;50.264;6.798;2024-03-22T05:37:54;9.00;99.90
21830;DHT22;11077;50.264;6.798;2024-03-22T05:40:20;9.00;99.90
21830;DHT22;11077;50.264;6.798;2024-03-22T05:42:48;9.00;99.90
21830;DHT22;11077;50.264;6.798;2024-03-22T05:45:14;9.00;99.90
21830;DHT22;11077;50.264;6.798;2024-03-22T05:47:41;9.00;99.90
21830;DHT22;11077;50.264;6.798;2024-03-22T05:50:10;9.00;99.90
21830;DHT22;11077;50.264;6.798;2024-03-22T05:52:37;9.10;99.90
21830;DHT22;11077;50.264;6.798;2024-03-22T05:55:04;9.10;99.90
21830;DHT22;11077;50.264;6.798;2024-03-22T05:57:32;9.10;99.90
21830;DHT22;11077;50.264;6.798;2024-03-22T05:59:59;9.10;99.90
21830;DHT22;11077;50.264;6.798;2024-03-22T06:02:31;9.20;99.90
21830;DHT22;11077;50.264;6.798;2024-03-22T06:04:57;9.20;99.90
21830;DHT22;11077;50.264;6.798;2024-03-22T06:07:26;9.20;99.90
21830;DHT22;11077;50.264;6.798;2024-03-22T06:09:53;9.20;99.90
21830;DHT22;11077;50.264;6.798;2024-03-22T06:12:20;9.20;99.90
21830;DHT22;11077;50.264;6.798;2024-03-22T06:14:48;9.20;99.90
21830;DHT22;11077;50.264;6.798;2024-03-22T06:17:16;9.20;99.90
21830;DHT22;11077;50.264;6.798;2024-03-22T06:19:43;9.20;99.90
21830;DHT22;11077;50.264;6.798;2024-03-22T06:22:12;9.30;99.90
21830;DHT22;11077;50.264;6.798;2024-03-22T06:24:40;9.30;99.90
21830;DHT22;11077;50.264;6.798;2024-03-22T06:27:08;9.30;99.90
21830;DHT22;11077;50.264;6.798;2024-03-22T06:29:35;9.30;99.90
21830;DHT22;11077;50.264;6.798;2024-03-22T06:32:03;9.30;99.90
21830;DHT22;11077;50.264;6.798;2024-03-22T06:34:29;9.30;99.90
21830;DHT22;11077;50.264;6.798;2024-03-22T06:36:56;9.40;99.90
21830;DHT22;11077;50.264;6.798;2024-03-22T06:39:23;9.40;99.90
21830;DHT22;11077;50.264;6.798;2024-03-22T06:41:52;9.40;99.90
21830;DHT22;11077;50.264;6.798;2024-03-22T06:44:18;9.30;99.90
21830;DHT22;11077;50.264;6.798;2024-03-22T06:46:46;9.30;99.90
21830;DHT22;11077;50.264;6.798;2024-03-22T06:49:12;9.40;99.90
21830;DHT22;11077;50.264;6.798;2024-03-22T06:51:39;9.40;99.90
21830;DHT22;11077;50.264;6.798;2024-03-22T06:54:06;9.40;99.90
21830;DHT22;11077;50.264;6.798;2024-03-22T06:56:33;9.40;99.90
21830;DHT22;11077;50.264;6.798;2024-03-22T06:59:01;9.40;99.90
21830;DHT22;11077;50.264;6.798;2024-03-22T07:01:29;9.50;99.90
21830;DHT22;11077;50.264;6.798;2024-03-22T07:03:56;9.50;99.90
21830;DHT22;11077;50.264;6.798;2024-03-22T07:06:23;9.50;99.90
21830;DHT22;11077;50.264;6.798;2024-03-22T07:08:49;9.50;99.90
21830;DHT22;11077;50.264;6.798;2024-03-22T07:11:17;9.50;99.90
21830;DHT22;11077;50.264;6.798;2024-03-22T07:13:43;9.60;99.90
21830;DHT22;11077;50.264;6.798;2024-03-22T07:16:12;9.70;99.90
21830;DHT22;11077;50.264;6.798;2024-03-22T07:18:38;9.70;99.90
21830;DHT22;11077;50.264;6.798;2024-03-22T07:21:05;9.70;99.90
21830;DHT22;11077;50.264;6.798;2024-03-22T07:23:32;9.70;99.90
21830;DHT22;11077;50.264;6.798;2024-03-22T07:25:59;9.70;99.90
21830;DHT22;11077;50.264;6.798;2024-03-22T07:28:27;9.80;99.90
21830;DHT22;11077;50.264;6.798;2024-03-22T07:30:57;9.80;99.90
21830;DHT22;11077;50.264;6.798;2024-03-22T07:33:25;9.90;99.90
21830;DHT22;11077;50.264;6.798;2024-03-22T07:35:52;9.90;99.90
21830;DHT22;11077;50.264;6.798;2024-03-22T07:38:20;9.90;99.90
21830;DHT22;11077;50.264;6.798;2024-03-22T07:40:47;10.00;99.90
21830;DHT22;11077;50.264;6.798;2024-03-22T07:43:14;10.10;99.90
21830;DHT22;11077;50.264;6.798;2024-03-22T07:45:42;10.10;99.90
21830;DHT22;11077;50.264;6.798;2024-03-22T07:48:09;10.20;99.90
21830;DHT22;11077;50.264;6.798;2024-03-22T07:50:39;10.20;99.90
21830;DHT22;11077;50.264;6.798;2024-03-22T07:53:05;10.30;99.90
21830;DHT22;11077;50.264;6.798;2024-03-22T07:55:33;10.30;99.90
21830;DHT22;11077;50.264;6.798;2024-03-22T07:58:00;10.40;99.90
21830;DHT22;11077;50.264;6.798;2024-03-22T08:00:27;10.40;99.90
21830;DHT22;11077;50.264;6.798;2024-03-22T08:02:54;10.40;99.90
21830;DHT22;11077;50.264;6.798;2024-03-22T08:05:22;10.50;99.90
21830;DHT22;11077;50.264;6.798;2024-03-22T08:07:51;10.50;99.90
21830;DHT22;11077;50.264;6.798;2024-03-22T08:10:18;10.50;99.90
21830;DHT22;11077;50.264;6.798;2024-03-22T08:12:45;10.60;99.90
21830;DHT22;11077;50.264;6.798;2024-03-22T08:15:12;10.70;99.90
21830;DHT22;11077;50.264;6.798;2024-03-22T08:17:39;10.80;99.90
21830;DHT22;11077;50.264;6.798;2024-03-22T08:20:07;11.00;99.90
21830;DHT22;11077;50.264;6.798;2024-03-22T08:22:33;11.00;99.90
21830;DHT22;11077;50.264;6.798;2024-03-22T08:25:02;11.10;99.90
21830;DHT22;11077;50.264;6.798;2024-03-22T08:27:30;11.10;99.90
21830;DHT22;11077;50.264;6.798;2024-03-22T08:29:57;11.10;99.90
21830;DHT22;11077;50.264;6.798;2024-03-22T08:32:23;11.10;99.90
21830;DHT22;11077;50.264;6.798;2024-03-22T08:34:51;11.20;99.90
21830;DHT22;11077;50.264;6.798;2024-03-22T08:37:17;11.20;99.90
21830;DHT22;11077;50.264;6.798;2024-03-22T08:39:46;11.20;99.90
21830;DHT22;11077;50.264;6.798;2024-03-22T08:42:14;11.20;99.90
21830;DHT22;11077;50.264;6.798;2024-03-22T08:44:42;11.20;99.90
21830;DHT22;11077;50.264;6.798;2024-03-22T08:47:09;11.30;99.90
21830;DHT22;11077;50.264;6.798;2024-03-22T08:49:36;11.20;99.90
21830;DHT22;11077;50.264;6.798;2024-03-22T08:52:03;11.20;99.90
21830;DHT22;11077;50.264;6.798;2024-03-22T08:54:30;11.20;99.90
21830;DHT22;11077;50.264;6.798;2024-03-22T08:56:56;11.10;99.90
21830;DHT22;11077;50.264;6.798;2024-03-22T08:59:27;11.20;99.90
21830;DHT22;11077;50.264;6.798;2024-03-22T09:01:54;11.10;99.90
21830;DHT22;11077;50.264;6.798;2024-03-22T09:04:22;11.20;99.90
21830;DHT22;11077;50.264;6.798;2024-03-22T09:06:49;11.10;99.90
21830;DHT22;11077;50.264;6.798;2024-03-22T09:09:16;11.10;99.90
21830;DHT22;11077;50.264;6.798;2024-03-22T09:11:47;11.10;99.90
21830;DHT22;11077;50.264;6.798;2024-03-22T09:14:15;11.10;99.90
21830;DHT22;11077;50.264;6.798;2024-03-22T09:16:42;11.10;99.90
21830;DHT22;11077;50.264;6.798;2024-03-22T09:19:10;11.10;99.90
21830;DHT22;11077;50.264;6.798;2024-03-22T09:21:36;11.20;99.90
21830;DHT22;11077;50.264;6.798;2024-03-22T09:24:07;11.20;99.90
21830;DHT22;11077;50.264;6.798;2024-03-22T09:26:34;11.20;99.90
21830;DHT22;11077;50.264;6.798;2024-03-22T09:29:01;11.20;99.90
21830;DHT22;11077;50.264;6.798;2024-03-22T09:31:29;11.20;99.90
21830;DHT22;11077;50.264;6.798;2024-03-22T09:34:00;11.20;99.90
21830;DHT22;11077;50.264;6.798;2024-03-22T09:36:27;11.20;99.90
21830;DHT22;11077;50.264;6.798;2024-03-22T09:38:57;11.20;99.90
21830;DHT22;11077;50.264;6.798;2024-03-22T09:41:24;11.20;99.90
21830;DHT22;11077;50.264;6.798;2024-03-22T09:43:54;11.20;99.90
21830;DHT22;11077;50.264;6.798;2024-03-22T09:46:25;11.30;99.90
21830;DHT22;11077;50.264;6.798;2024-03-22T09:48:54;11.30;99.90
21830;DHT22;11077;50.264;6.798;2024-03-22T09:51:22;11.30;99.90
21830;DHT22;11077;50.264;6.798;2024-03-22T09:53:51;11.30;99.90
21830;DHT22;11077;50.264;6.798;2024-03-22T09:56:20;11.30;99.90
21830;DHT22;11077;50.264;6.798;2024-03-22T09:58:49;11.40;99.90
21830;DHT22;11077;50.264;6.798;2024-03-22T10:01:16;11.30;99.90
21830;DHT22;11077;50.264;6.798;2024-03-22T10:03:44;11.40;99.90
21830;DHT22;11077;50.264;6.798;2024-03-22T10:06:10;11.40;99.90
21830;DHT22;11077;50.264;6.798;2024-03-22T10:08:40;11.50;99.90
21830;DHT22;11077;50.264;6.798;2024-03-22T10:11:06;11.50;99.90
21830;DHT22;11077;50.264;6.798;2024-03-22T10:13:36;11.60;99.90
21830;DHT22;11077;50.264;6.798;2024-03-22T10:16:04;11.60;99.90
21830;DHT22;11077;50.264;6.798;2024-03-22T10:18:33;11.70;99.90
21830;DHT22;11077;50.264;6.798;2024-03-22T10:21:00;11.70;99.90
21830;DHT22;11077;50.264;6.798;2024-03-22T10:23:28;11.70;99.90
21830;DHT22;11077;50.264;6.798;2024-03-22T10:25:58;11.60;99.90
21830;DHT22;11077;50.264;6.798;2024-03-22T10:28:26;11.70;99.90
21830;DHT22;11077;50.264;6.798;2024-03-22T10:30:53;11.70;99.90
21830;DHT22;11077;50.264;6.798;2024-03-22T10:33:31;11.70;99.90
21830;DHT22;11077;50.264;6.798;2024-03-22T10:35:58;11.80;99.90
21830;DHT22;11077;50.264;6.798;2024-03-22T10:38:27;11.70;99.90
21830;DHT22;11077;50.264;6.798;2024-03-22T10:40:54;11.70;99.90
21830;DHT22;11077;50.264;6.798;2024-03-22T10:43:24;11.80;99.90
21830;DHT22;11077;50.264;6.798;2024-03-22T10:45:51;11.90;99.90
21830;DHT22;11077;50.264;6.798;2024-03-22T10:48:24;11.80;99.90
21830;DHT22;11077;50.264;6.798;2024-03-22T10:50:58;11.90;99.90
21830;DHT22;11077;50.264;6.798;2024-03-22T10:53:34;11.90;99.90
21830;DHT22;11077;50.264;6.798;2024-03-22T10:56:02;11.90;99.90
21830;DHT22;11077;50.264;6.798;2024-03-22T10:58:33;11.90;99.90
21830;DHT22;11077;50.264;6.798;2024-03-22T11:00:59;11.90;99.90
21830;DHT22;11077;50.264;6.798;2024-03-22T11:03:29;11.80;99.90
21830;DHT22;11077;50.264;6.798;2024-03-22T11:05:57;11.80;99.90
21830;DHT22;11077;50.264;6.798;2024-03-22T11:08:26;11.80;99.90
21830;DHT22;11077;50.264;6.798;2024-03-22T11:10:52;11.80;99.90
21830;DHT22;11077;50.264;6.798;2024-03-22T11:13:22;11.80;99.90
21830;DHT22;11077;50.264;6.798;2024-03-22T11:15:55;11.80;99.90
21830;DHT22;11077;50.264;6.798;2024-03-22T11:18:23;11.80;99.90
21830;DHT22;11077;50.264;6.798;2024-03-22T11:20:50;11.80;99.90
21830;DHT22;11077;50.264;6.798;2024-03-22T11:23:18;11.80;99.90
21830;DHT22;11077;50.264;6.798;2024-03-22T11:25:45;11.80;99.90
21830;DHT22;11077;50.264;6.798;2024-03-22T11:28:14;11.80;99.90
21830;DHT22;11077;50.264;6.798;2024-03-22T11:30:42;11.70;99.90
21830;DHT22;11077;50.264;6.798;2024-03-22T11:33:10;11.50;99.90
21830;DHT22;11077;50.264;6.798;2024-03-22T11:35:37;11.80;99.90
21830;DHT22;11077;50.264;6.798;2024-03-22T11:38:05;11.80;99.90
21830;DHT22;11077;50.264;6.798;2024-03-22T11:40:32;11.80;99.90
21830;DHT22;11077;50.264;6.798;2024-03-22T11:43:01;11.80;99.90
21830;DHT22;11077;50.264;6.798;2024-03-22T11:45:28;11.80;99.90
21830;DHT22;11077;50.264;6.798;2024-03-22T11:48:01;11.80;99.90
21830;DHT22;11077;50.264;6.798;2024-03-22T11:50:33;11.80;99.90
21830;DHT22;11077;50.264;6.798;2024-03-22T11:53:05;11.80;99.90
21830;DHT22;11077;50.264;6.798;2024-03-22T11:55:32;11.90;99.90
21830;DHT22;11077;50.264;6.798;2024-03-22T11:58:00;11.90;99.90
21830;DHT22;11077;50.264;6.798;2024-03-22T12:00:28;11.90;99.90
21830;DHT22;11077;50.264;6.798;2024-03-22T12:02:56;11.90;99.90
21830;DHT22;11077;50.264;6.798;2024-03-22T12:05:22;12.00;99.90
21830;DHT22;11077;50.264;6.798;2024-03-22T12:07:53;11.90;99.90
21830;DHT22;11077;50.264;6.798;2024-03-22T12:10:19;12.00;99.90
21830;DHT22;11077;50.264;6.798;2024-03-22T12:12:47;12.00;99.90
21830;DHT22;11077;50.264;6.798;2024-03-22T12:15:13;12.00;99.90
21830;DHT22;11077;50.264;6.798;2024-03-22T12:17:41;12.00;99.90
21830;DHT22;11077;50.264;6.798;2024-03-22T12:20:09;11.90;99.90
21830;DHT22;11077;50.264;6.798;2024-03-22T12:22:37;11.90;99.90
21830;DHT22;11077;50.264;6.798;2024-03-22T12:25:06;11.90;99.90
21830;DHT22;11077;50.264;6.798;2024-03-22T12:27:46;11.90;99.90
21830;DHT22;11077;50.264;6.798;2024-03-22T12:30:13;11.90;99.90
21830;DHT22;11077;50.264;6.798;2024-03-22T12:32:41;11.80;99.90
21830;DHT22;11077;50.264;6.798;2024-03-22T12:35:08;11.80;99.90
21830;DHT22;11077;50.264;6.798;2024-03-22T12:37:35;11.80;99.90
21830;DHT22;11077;50.264;6.798;2024-03-22T12:40:02;11.90;99.90
21830;DHT22;11077;50.264;6.798;2024-03-22T12:42:31;11.80;99.90
21830;DHT22;11077;50.264;6.798;2024-03-22T12:44:58;11.90;99.90
21830;DHT22;11077;50.264;6.798;2024-03-22T12:47:27;12.00;99.90
21830;DHT22;11077;50.264;6.798;2024-03-22T12:49:54;11.90;99.90
21830;DHT22;11077;50.264;6.798;2024-03-22T12:52:22;12.00;99.90
21830;DHT22;11077;50.264;6.798;2024-03-22T12:54:48;12.00;99.90
21830;DHT22;11077;50.264;6.798;2024-03-22T12:57:16;12.10;99.90
21830;DHT22;11077;50.264;6.798;2024-03-22T12:59:46;12.10;99.90
21830;DHT22;11077;50.264;6.798;2024-03-22T13:02:14;12.10;99.90
21830;DHT22;11077;50.264;6.798;2024-03-22T13:04:41;12.10;99.90
21830;DHT22;11077;50.264;6.798;2024-03-22T13:07:09;12.20;99.90
21830;DHT22;11077;50.264;6.798;2024-03-22T13:09:35;12.20;99.90
21830;DHT22;11077;50.264;6.798;2024-03-22T13:12:03;12.30;99.90
21830;DHT22;11077;50.264;6.798;2024-03-22T13:14:29;12.40;99.90
21830;DHT22;11077;50.264;6.798;2024-03-22T13:16:58;12.50;99.90
21830;DHT22;11077;50.264;6.798;2024-03-22T13:19:25;12.60;99.90
21830;DHT22;11077;50.264;6.798;2024-03-22T13:21:52;12.60;99.90
21830;DHT22;11077;50.264;6.798;2024-03-22T13:24:19;12.70;99.90
21830;DHT22;11077;50.264;6.798;2024-03-22T13:26:47;12.70;99.90
21830;DHT22;11077;50.264;6.798;2024-03-22T13:29:23;12.80;99.90
21830;DHT22;11077;50.264;6.798;2024-03-22T13:32:06;12.80;99.90
21830;DHT22;11077;50.264;6.798;2024-03-22T13:34:34;12.90;99.90
21830;DHT22;11077;50.264;6.798;2024-03-22T13:37:02;13.00;99.90
21830;DHT22;11077;50.264;6.798;2024-03-22T13:39:36;13.10;99.90
21830;DHT22;11077;50.264;6.798;2024-03-22T13:42:04;13.20;99.90
21830;DHT22;11077;50.264;6.798;2024-03-22T13:44:32;13.30;99.90
21830;DHT22;11077;50.264;6.798;2024-03-22T13:47:02;13.30;99.90
21830;DHT22;11077;50.264;6.798;2024-03-22T13:49:32;13.40;99.90
21830;DHT22;11077;50.264;6.798;2024-03-22T13:51:59;13.40;99.90
21830;DHT22;11077;50.264;6.798;2024-03-22T13:54:28;13.50;99.90
21830;DHT22;11077;50.264;6.798;2024-03-22T13:56:56;13.60;99.90
21830;DHT22;11077;50.264;6.798;2024-03-22T13:59:25;13.70;99.90
21830;DHT22;11077;50.264;6.798;2024-03-22T14:01:53;13.70;99.90
21830;DHT22;11077;50.264;6.798;2024-03-22T14:04:19;13.80;99.90
21830;DHT22;11077;50.264;6.798;2024-03-22T14:06:48;13.80;99.90
21830;DHT22;11077;50.264;6.798;2024-03-22T14:09:15;13.80;99.90
21830;DHT22;11077;50.264;6.798;2024-03-22T14:11:44;13.90;99.90
21830;DHT22;11077;50.264;6.798;2024-03-22T14:14:15;13.80;99.90
21830;DHT22;11077;50.264;6.798;2024-03-22T14:16:42;13.70;99.90
21830;DHT22;11077;50.264;6.798;2024-03-22T14:19:09;13.70;99.90
21830;DHT22;11077;50.264;6.798;2024-03-22T14:21:37;13.70;99.90
21830;DHT22;11077;50.264;6.798;2024-03-22T14:24:06;13.60;99.90
21830;DHT22;11077;50.264;6.798;2024-03-22T14:26:34;13.70;99.90
21830;DHT22;11077;50.264;6.798;2024-03-22T14:29:00;13.70;99.90
21830;DHT22;11077;50.264;6.798;2024-03-22T14:31:28;13.80;99.90
21830;DHT22;11077;50.264;6.798;2024-03-22T14:33:55;13.70;99.90
21830;DHT22;11077;50.264;6.798;2024-03-22T14:36:25;13.70;99.90
21830;DHT22;11077;50.264;6.798;2024-03-22T14:38:52;13.80;99.90
21830;DHT22;11077;50.264;6.798;2024-03-22T14:41:21;13.80;99.90
21830;DHT22;11077;50.264;6.798;2024-03-22T14:43:48;13.80;99.90
21830;DHT22;11077;50.264;6.798;2024-03-22T14:46:17;13.90;99.90
21830;DHT22;11077;50.264;6.798;2024-03-22T14:48:46;13.90;99.90
21830;DHT22;11077;50.264;6.798;2024-03-22T14:51:13;14.00;99.90
21830;DHT22;11077;50.264;6.798;2024-03-22T14:53:40;14.10;99.90
21830;DHT22;11077;50.264;6.798;2024-03-22T14:56:10;14.20;99.90
21830;DHT22;11077;50.264;6.798;2024-03-22T14:58:40;14.20;99.90
21830;DHT22;11077;50.264;6.798;2024-03-22T15:01:11;14.20;99.90
21830;DHT22;11077;50.264;6.798;2024-03-22T15:03:38;14.30;99.90
21830;DHT22;11077;50.264;6.798;2024-03-22T15:06:05;14.30;99.90
21830;DHT22;11077;50.264;6.798;2024-03-22T15:08:49;14.30;99.90
21830;DHT22;11077;50.264;6.798;2024-03-22T15:11:26;14.20;99.90
21830;DHT22;11077;50.264;6.798;2024-03-22T15:13:55;14.10;99.90
21830;DHT22;11077;50.264;6.798;2024-03-22T15:16:21;14.10;99.90
21830;DHT22;11077;50.264;6.798;2024-03-22T15:18:49;14.00;99.90
21830;DHT22;11077;50.264;6.798;2024-03-22T15:21:16;14.00;99.90
21830;DHT22;11077;50.264;6.798;2024-03-22T15:23:47;14.00;99.90
21830;DHT22;11077;50.264;6.798;2024-03-22T15:26:14;14.10;99.90
21830;DHT22;11077;50.264;6.798;2024-03-22T15:28:55;14.10;99.90
21830;DHT22;11077;50.264;6.798;2024-03-22T15:31:21;14.20;99.90
21830;DHT22;11077;50.264;6.798;2024-03-22T15:33:49;14.30;99.90
21830;DHT22;11077;50.264;6.798;2024-03-22T15:36:19;14.30;99.90
21830;DHT22;11077;50.264;6.798;2024-03-22T15:38:52;14.30;99.90
21830;DHT22;11077;50.264;6.798;2024-03-22T15:41:19;14.40;99.90